createdAt,value
2017-07-05T00:00:50.762Z,18.47
2017-07-05T00:01:59.810Z,18.39
2017-07-05T00:03:08.977Z,18.44
2017-07-05T00:04:17.994Z,18.47
2017-07-05T00:05:27.507Z,18.42
2017-07-05T00:06:36.464Z,18.44
2017-07-05T00:07:45.380Z,18.42
2017-07-05T00:08:54.306Z,18.48
2017-07-05T00:10:03.225Z,18.45
2017-07-05T00:11:12.145Z,18.39
2017-07-05T00:12:21.061Z,18.42
2017-07-05T00:13:29.995Z,18.42
2017-07-05T00:14:38.913Z,18.42
2017-07-05T00:15:47.837Z,18.42
2017-07-05T00:16:58.209Z,18.41
2017-07-05T00:18:10.408Z,18.44
2017-07-05T00:19:22.315Z,18.41
2017-07-05T00:20:33.051Z,18.42
2017-07-05T00:21:42.009Z,18.41
2017-07-05T00:22:50.942Z,18.36
2017-07-05T00:23:59.937Z,18.37
2017-07-05T00:25:08.980Z,18.39
2017-07-05T00:26:18.024Z,18.39
2017-07-05T00:27:26.948Z,18.33
2017-07-05T00:28:35.877Z,18.33
2017-07-05T00:29:45.128Z,18.37
2017-07-05T00:30:54.055Z,18.37
2017-07-05T00:32:02.973Z,18.48
2017-07-05T00:33:11.896Z,18.44
2017-07-05T00:34:20.811Z,18.42
2017-07-05T00:35:29.728Z,18.35
2017-07-05T00:36:38.679Z,18.33
2017-07-05T00:37:47.641Z,18.35
2017-07-05T00:38:56.720Z,18.36
2017-07-05T00:40:05.717Z,18.35
2017-07-05T00:41:14.712Z,18.32
2017-07-05T00:42:23.636Z,18.42
2017-07-05T00:43:32.558Z,18.36
2017-07-05T00:44:41.755Z,18.39
2017-07-05T00:45:50.897Z,18.33
2017-07-05T00:46:59.958Z,18.41
2017-07-05T00:48:08.878Z,18.35
2017-07-05T00:49:17.917Z,18.39
2017-07-05T00:50:26.887Z,18.36
2017-07-05T00:51:35.855Z,18.36
2017-07-05T00:52:45.017Z,18.29
2017-07-05T00:53:54.119Z,18.35
2017-07-05T00:55:03.040Z,18.39
2017-07-05T00:56:11.959Z,18.35
2017-07-05T00:57:20.995Z,18.36
2017-07-05T00:58:29.921Z,18.32
2017-07-05T00:59:38.898Z,18.36
2017-07-05T01:00:47.852Z,18.27
2017-07-05T01:01:56.812Z,18.32
2017-07-05T01:03:06.094Z,18.39
2017-07-05T01:04:15.015Z,18.37
2017-07-05T01:05:23.928Z,18.32
2017-07-05T01:06:32.892Z,18.35
2017-07-05T01:07:41.815Z,18.37
2017-07-05T01:08:50.735Z,18.3
2017-07-05T01:09:59.657Z,18.37
2017-07-05T01:11:08.577Z,18.32
2017-07-05T01:12:17.494Z,18.37
2017-07-05T01:13:26.415Z,18.36
2017-07-05T01:14:35.354Z,18.42
2017-07-05T01:15:44.280Z,18.29
2017-07-05T01:16:53.193Z,18.27
2017-07-05T01:18:02.118Z,18.36
2017-07-05T01:19:11.033Z,18.23
2017-07-05T01:20:19.958Z,18.27
2017-07-05T01:21:28.869Z,18.2
2017-07-05T01:22:37.787Z,18.3
2017-07-05T01:23:46.710Z,18.32
2017-07-05T01:24:55.631Z,18.25
2017-07-05T01:26:04.558Z,18.21
2017-07-05T01:27:13.483Z,18.26
2017-07-05T01:28:22.403Z,18.25
2017-07-05T01:29:31.318Z,18.15
2017-07-05T01:30:40.235Z,18.18
2017-07-05T01:31:49.164Z,18.29
2017-07-05T01:32:58.085Z,18.15
2017-07-05T01:34:07.010Z,18.26
2017-07-05T01:35:15.931Z,18.14
2017-07-05T01:36:24.850Z,18.15
2017-07-05T01:37:33.770Z,18.15
2017-07-05T01:38:43.111Z,18.12
2017-07-05T01:39:52.045Z,18.12
2017-07-05T01:41:00.962Z,18.15
2017-07-05T01:42:09.886Z,18.11
2017-07-05T01:43:18.811Z,18.18
2017-07-05T01:44:27.737Z,18.12
2017-07-05T01:45:36.655Z,18.11
2017-07-05T01:46:45.583Z,18.12
2017-07-05T01:47:54.498Z,18.11
2017-07-05T01:49:03.416Z,18.11
2017-07-05T01:50:12.339Z,18.08
2017-07-05T01:51:21.260Z,18.08
2017-07-05T01:52:30.179Z,18.08
2017-07-05T01:53:39.101Z,18.15
2017-07-05T01:54:48.027Z,18.05
2017-07-05T01:55:56.943Z,18.07
2017-07-05T01:57:05.872Z,18.08
2017-07-05T01:58:14.877Z,18
2017-07-05T01:59:23.786Z,18.02
2017-07-05T02:00:32.707Z,18.07
2017-07-05T02:01:41.628Z,18.05
2017-07-05T02:02:50.545Z,18.11
2017-07-05T02:03:59.467Z,18.03
2017-07-05T02:05:08.389Z,18.03
2017-07-05T02:06:17.307Z,18.07
2017-07-05T02:07:26.228Z,18.08
2017-07-05T02:08:35.147Z,17.99
2017-07-05T02:09:44.067Z,18.03
2017-07-05T02:10:52.989Z,18.03
2017-07-05T02:12:01.913Z,18.03
2017-07-05T02:13:10.837Z,17.97
2017-07-05T02:14:19.761Z,17.96
2017-07-05T02:15:28.682Z,18.05
2017-07-05T02:16:37.597Z,18
2017-07-05T02:17:46.527Z,17.99
2017-07-05T02:18:55.454Z,18
2017-07-05T02:20:04.377Z,17.97
2017-07-05T02:21:13.302Z,17.9
2017-07-05T02:22:22.221Z,17.92
2017-07-05T02:23:31.478Z,17.95
2017-07-05T02:24:40.403Z,17.87
2017-07-05T02:25:49.412Z,17.97
2017-07-05T02:26:58.335Z,17.9
2017-07-05T02:28:07.251Z,17.87
2017-07-05T02:29:16.169Z,17.92
2017-07-05T02:30:25.088Z,17.84
2017-07-05T02:31:34.003Z,17.87
2017-07-05T02:32:42.936Z,17.89
2017-07-05T02:33:51.853Z,17.89
2017-07-05T02:35:00.773Z,17.89
2017-07-05T02:36:09.689Z,17.86
2017-07-05T02:37:18.612Z,17.86
2017-07-05T02:38:27.543Z,17.84
2017-07-05T02:39:36.461Z,17.84
2017-07-05T02:40:45.382Z,17.87
2017-07-05T02:41:54.297Z,17.92
2017-07-05T02:43:03.219Z,17.9
2017-07-05T02:44:12.138Z,17.82
2017-07-05T02:45:21.060Z,17.81
2017-07-05T02:46:29.984Z,17.77
2017-07-05T02:47:38.901Z,17.75
2017-07-05T02:48:47.900Z,17.72
2017-07-05T02:49:56.813Z,17.74
2017-07-05T02:51:05.731Z,17.77
2017-07-05T02:52:14.658Z,17.86
2017-07-05T02:53:23.666Z,17.75
2017-07-05T02:54:32.588Z,17.75
2017-07-05T02:55:41.514Z,17.77
2017-07-05T02:56:50.435Z,17.74
2017-07-05T02:57:59.355Z,17.71
2017-07-05T02:59:08.357Z,17.72
2017-07-05T03:00:17.289Z,17.72
2017-07-05T03:01:26.201Z,17.78
2017-07-05T03:02:35.118Z,17.72
2017-07-05T03:03:44.030Z,17.75
2017-07-05T03:04:52.951Z,17.75
2017-07-05T03:06:01.863Z,17.71
2017-07-05T03:07:10.785Z,17.75
2017-07-05T03:08:19.702Z,17.74
2017-07-05T03:09:28.622Z,17.78
2017-07-05T03:10:37.543Z,17.72
2017-07-05T03:11:46.542Z,17.74
2017-07-05T03:12:55.463Z,17.77
2017-07-05T03:14:04.459Z,17.72
2017-07-05T03:15:13.379Z,17.71
2017-07-05T03:16:22.308Z,17.77
2017-07-05T03:17:31.225Z,17.78
2017-07-05T03:18:40.151Z,17.74
2017-07-05T03:19:49.070Z,17.77
2017-07-05T03:20:57.993Z,17.79
2017-07-05T03:22:06.911Z,17.81
2017-07-05T03:23:15.832Z,17.72
2017-07-05T03:24:24.756Z,17.71
2017-07-05T03:25:33.675Z,17.72
2017-07-05T03:26:42.599Z,17.72
2017-07-05T03:27:51.511Z,17.78
2017-07-05T03:29:00.428Z,17.71
2017-07-05T03:30:09.350Z,17.78
2017-07-05T03:31:18.271Z,17.74
2017-07-05T03:32:27.279Z,17.77
2017-07-05T03:33:36.195Z,17.72
2017-07-05T03:34:45.109Z,17.68
2017-07-05T03:35:54.033Z,17.81
2017-07-05T03:37:02.948Z,17.72
2017-07-05T03:38:11.872Z,17.71
2017-07-05T03:39:20.792Z,17.74
2017-07-05T03:40:29.722Z,17.72
2017-07-05T03:41:38.647Z,17.79
2017-07-05T03:42:47.561Z,17.78
2017-07-05T03:43:56.484Z,17.75
2017-07-05T03:45:05.493Z,17.71
2017-07-05T03:46:14.417Z,17.74
2017-07-05T03:47:23.423Z,17.68
2017-07-05T03:48:32.339Z,17.78
2017-07-05T03:49:41.267Z,17.78
2017-07-05T03:50:50.186Z,17.75
2017-07-05T03:51:59.102Z,17.87
2017-07-05T03:53:08.374Z,17.84
2017-07-05T03:54:17.299Z,17.77
2017-07-05T03:55:26.225Z,17.82
2017-07-05T03:56:35.150Z,17.86
2017-07-05T03:57:44.067Z,17.86
2017-07-05T03:58:52.985Z,17.79
2017-07-05T04:00:02.313Z,17.77
2017-07-05T04:01:11.235Z,17.74
2017-07-05T04:02:20.154Z,17.75
2017-07-05T04:03:29.077Z,17.78
2017-07-05T04:04:37.995Z,17.71
2017-07-05T04:05:46.914Z,17.78
2017-07-05T04:06:55.839Z,17.81
2017-07-05T04:08:04.753Z,17.78
2017-07-05T04:09:13.680Z,17.72
2017-07-05T04:10:22.594Z,17.66
2017-07-05T04:11:31.509Z,17.64
2017-07-05T04:12:40.429Z,17.72
2017-07-05T04:13:49.360Z,17.77
2017-07-05T04:14:58.283Z,17.7
2017-07-05T04:16:07.197Z,17.75
2017-07-05T04:17:16.122Z,17.77
2017-07-05T04:18:25.046Z,17.75
2017-07-05T04:19:33.991Z,17.74
2017-07-05T04:20:42.915Z,17.79
2017-07-05T04:21:51.834Z,17.74
2017-07-05T04:23:00.752Z,17.77
2017-07-05T04:24:09.669Z,17.77
2017-07-05T04:25:18.590Z,17.63
2017-07-05T04:26:27.512Z,17.71
2017-07-05T04:27:36.443Z,17.75
2017-07-05T04:28:45.366Z,17.72
2017-07-05T04:29:54.280Z,17.75
2017-07-05T04:31:03.195Z,17.74
2017-07-05T04:32:12.112Z,17.72
2017-07-05T04:33:21.042Z,17.59
2017-07-05T04:34:29.958Z,17.7
2017-07-05T04:35:38.879Z,17.64
2017-07-05T04:36:47.798Z,17.68
2017-07-05T04:37:56.812Z,17.66
2017-07-05T04:39:05.732Z,17.58
2017-07-05T04:40:14.654Z,17.55
2017-07-05T04:41:23.577Z,17.52
2017-07-05T04:42:32.498Z,17.49
2017-07-05T04:43:41.421Z,17.49
2017-07-05T04:44:50.341Z,17.49
2017-07-05T04:45:59.266Z,17.43
2017-07-05T04:47:08.193Z,17.4
2017-07-05T04:48:17.114Z,17.36
2017-07-05T04:49:26.040Z,17.31
2017-07-05T04:50:34.960Z,17.36
2017-07-05T04:51:43.882Z,17.31
2017-07-05T04:52:52.804Z,17.3
2017-07-05T04:54:01.729Z,17.33
2017-07-05T04:55:10.646Z,17.26
2017-07-05T04:56:19.572Z,17.26
2017-07-05T04:57:28.499Z,17.3
2017-07-05T04:58:37.418Z,17.25
2017-07-05T04:59:46.429Z,17.33
2017-07-05T05:00:55.353Z,17.31
2017-07-05T05:02:04.275Z,17.37
2017-07-05T05:03:13.192Z,17.4
2017-07-05T05:04:22.124Z,17.41
2017-07-05T05:05:31.042Z,17.31
2017-07-05T05:06:39.963Z,17.34
2017-07-05T05:07:48.886Z,17.26
2017-07-05T05:08:57.805Z,17.3
2017-07-05T05:10:06.722Z,17.33
2017-07-05T05:11:15.639Z,17.31
2017-07-05T05:12:24.555Z,17.31
2017-07-05T05:13:33.802Z,17.36
2017-07-05T05:14:42.714Z,17.33
2017-07-05T05:15:51.635Z,17.28
2017-07-05T05:17:00.554Z,17.31
2017-07-05T05:18:09.480Z,17.3
2017-07-05T05:19:18.406Z,17.19
2017-07-05T05:20:27.327Z,17.26
2017-07-05T05:21:36.239Z,17.18
2017-07-05T05:22:45.168Z,17.15
2017-07-05T05:23:54.084Z,17.15
2017-07-05T05:25:03.009Z,17.11
2017-07-05T05:26:11.924Z,16.98
2017-07-05T05:27:20.841Z,16.96
2017-07-05T05:28:29.761Z,16.96
2017-07-05T05:29:38.679Z,16.94
2017-07-05T05:30:47.689Z,16.97
2017-07-05T05:31:56.614Z,16.91
2017-07-05T05:33:05.535Z,16.83
2017-07-05T05:34:14.464Z,16.81
2017-07-05T05:35:23.387Z,16.82
2017-07-05T05:36:32.305Z,16.81
2017-07-05T05:37:41.228Z,16.76
2017-07-05T05:38:50.234Z,16.78
2017-07-05T05:39:59.167Z,16.78
2017-07-05T05:41:08.088Z,16.7
2017-07-05T05:42:17.009Z,16.64
2017-07-05T05:43:25.927Z,16.56
2017-07-05T05:44:34.847Z,16.41
2017-07-05T05:45:43.772Z,16.38
2017-07-05T05:46:52.694Z,16.23
2017-07-05T05:48:01.608Z,16.15
2017-07-05T05:49:10.530Z,16.12
2017-07-05T05:50:19.444Z,16.09
2017-07-05T05:51:28.371Z,16.17
2017-07-05T05:52:37.283Z,16.17
2017-07-05T05:53:46.204Z,16.01
2017-07-05T05:54:55.121Z,15.97
2017-07-05T05:56:04.038Z,15.97
2017-07-05T05:57:12.966Z,15.97
2017-07-05T05:58:21.882Z,15.89
2017-07-05T05:59:30.799Z,15.89
2017-07-05T06:00:39.722Z,15.87
2017-07-05T06:01:48.649Z,15.89
2017-07-05T06:02:57.571Z,15.82
2017-07-05T06:04:06.493Z,15.83
2017-07-05T06:05:15.418Z,15.82
2017-07-05T06:06:24.335Z,15.84
2017-07-05T06:07:33.250Z,15.86
2017-07-05T06:08:42.166Z,15.83
2017-07-05T06:09:51.082Z,15.87
2017-07-05T06:10:59.996Z,15.75
2017-07-05T06:12:08.913Z,15.8
2017-07-05T06:13:17.826Z,15.82
2017-07-05T06:14:26.738Z,15.8
2017-07-05T06:15:35.658Z,15.82
2017-07-05T06:16:44.575Z,15.76
2017-07-05T06:17:53.498Z,15.82
2017-07-05T06:19:02.410Z,15.86
2017-07-05T06:20:11.324Z,15.78
2017-07-05T06:21:20.252Z,15.76
2017-07-05T06:22:29.174Z,15.84
2017-07-05T06:23:38.184Z,15.8
2017-07-05T06:24:47.120Z,15.82
2017-07-05T06:25:56.033Z,15.75
2017-07-05T06:27:04.957Z,15.82
2017-07-05T06:28:13.879Z,15.84
2017-07-05T06:29:22.849Z,15.9
2017-07-05T06:30:31.726Z,15.8
2017-07-05T06:31:40.647Z,15.84
2017-07-05T06:32:49.564Z,15.92
2017-07-05T06:33:58.567Z,15.93
2017-07-05T06:35:07.497Z,16.01
2017-07-05T06:36:16.420Z,15.97
2017-07-05T06:37:25.336Z,15.89
2017-07-05T06:38:34.258Z,16.01
2017-07-05T06:39:43.180Z,15.94
2017-07-05T06:40:52.101Z,16.04
2017-07-05T06:42:01.023Z,15.94
2017-07-05T06:43:09.938Z,15.94
2017-07-05T06:44:18.855Z,15.89
2017-07-05T06:45:27.780Z,15.9
2017-07-05T06:46:37.030Z,15.93
2017-07-05T06:47:45.941Z,15.89
2017-07-05T06:48:54.868Z,15.89
2017-07-05T06:50:03.786Z,15.84
2017-07-05T06:51:12.710Z,15.89
2017-07-05T06:52:21.633Z,15.76
2017-07-05T06:53:30.565Z,15.83
2017-07-05T06:54:39.479Z,15.68
2017-07-05T06:55:48.401Z,15.68
2017-07-05T06:56:57.318Z,15.74
2017-07-05T06:58:06.240Z,15.68
2017-07-05T06:59:15.221Z,15.67
2017-07-05T07:00:24.157Z,15.68
2017-07-05T07:01:33.172Z,15.68
2017-07-05T07:02:43.509Z,15.67
2017-07-05T07:03:53.740Z,15.69
2017-07-05T07:05:02.821Z,15.64
2017-07-05T07:06:12.026Z,15.68
2017-07-05T07:07:21.058Z,15.67
2017-07-05T07:08:29.975Z,15.64
2017-07-05T07:09:38.885Z,15.62
2017-07-05T07:10:47.813Z,15.65
2017-07-05T07:11:56.735Z,15.69
2017-07-05T07:13:05.669Z,15.68
2017-07-05T07:14:14.590Z,15.67
2017-07-05T07:15:23.507Z,15.67
2017-07-05T07:16:32.427Z,15.67
2017-07-05T07:17:41.357Z,15.65
2017-07-05T07:18:50.273Z,15.51
2017-07-05T07:19:59.191Z,15.62
2017-07-05T07:21:08.107Z,15.54
2017-07-05T07:22:17.022Z,15.65
2017-07-05T07:23:26.068Z,15.6
2017-07-05T07:24:35.202Z,15.51
2017-07-05T07:25:44.148Z,15.5
2017-07-05T07:26:53.249Z,15.49
2017-07-05T07:28:02.206Z,15.46
2017-07-05T07:29:11.231Z,15.51
2017-07-05T07:30:20.193Z,15.44
2017-07-05T07:31:29.110Z,15.47
2017-07-05T07:32:38.146Z,15.46
2017-07-05T07:33:47.064Z,15.56
2017-07-05T07:34:55.984Z,15.49
2017-07-05T07:36:04.974Z,15.46
2017-07-05T07:37:13.952Z,15.51
2017-07-05T07:38:22.976Z,15.47
2017-07-05T07:39:31.974Z,15.54
2017-07-05T07:40:40.927Z,15.56
2017-07-05T07:41:50.037Z,15.59
2017-07-05T07:42:58.999Z,15.56
2017-07-05T07:44:07.925Z,15.68
2017-07-05T07:45:16.846Z,15.6
2017-07-05T07:46:25.863Z,15.64
2017-07-05T07:47:34.806Z,15.68
2017-07-05T07:48:43.782Z,15.67
2017-07-05T07:49:52.769Z,15.65
2017-07-05T07:51:01.879Z,15.59
2017-07-05T07:52:10.800Z,15.56
2017-07-05T07:53:19.713Z,15.57
2017-07-05T07:54:28.798Z,15.46
2017-07-05T07:55:37.727Z,15.46
2017-07-05T07:56:46.648Z,15.46
2017-07-05T07:57:55.798Z,15.5
2017-07-05T07:59:04.729Z,15.41
2017-07-05T08:00:13.788Z,15.49
2017-07-05T08:01:22.710Z,15.47
2017-07-05T08:02:31.710Z,15.47
2017-07-05T08:03:40.659Z,15.46
2017-07-05T08:04:49.584Z,15.5
2017-07-05T08:05:58.503Z,15.5
2017-07-05T08:07:07.422Z,15.36
2017-07-05T08:08:16.671Z,15.49
2017-07-05T08:09:25.919Z,15.56
2017-07-05T08:10:35.071Z,15.53
2017-07-05T08:11:44.251Z,15.57
2017-07-05T08:12:53.332Z,15.56
2017-07-05T08:14:02.502Z,15.62
2017-07-05T08:15:11.498Z,15.68
2017-07-05T08:16:20.618Z,15.65
2017-07-05T08:17:29.579Z,15.71
2017-07-05T08:18:38.752Z,15.71
2017-07-05T08:19:47.764Z,15.74
2017-07-05T08:20:56.744Z,15.71
2017-07-05T08:22:05.813Z,15.75
2017-07-05T08:23:14.728Z,15.78
2017-07-05T08:24:23.646Z,15.84
2017-07-05T08:25:32.713Z,15.86
2017-07-05T08:26:41.743Z,16.01
2017-07-05T08:27:50.802Z,16
2017-07-05T08:29:00.077Z,15.89
2017-07-05T08:30:09.150Z,15.87
2017-07-05T08:31:18.186Z,15.87
2017-07-05T08:32:27.110Z,15.86
2017-07-05T08:33:36.319Z,16
2017-07-05T08:34:45.385Z,16
2017-07-05T08:35:54.438Z,16.04
2017-07-05T08:37:03.534Z,16.15
2017-07-05T08:38:12.454Z,16.07
2017-07-05T08:39:21.370Z,16.12
2017-07-05T08:40:30.296Z,16.21
2017-07-05T08:41:39.207Z,16.2
2017-07-05T08:42:48.133Z,16.15
2017-07-05T08:43:57.220Z,16.25
2017-07-05T08:45:06.325Z,16.27
2017-07-05T08:46:15.257Z,16.2
2017-07-05T08:47:24.198Z,16.31
2017-07-05T08:48:33.517Z,16.31
2017-07-05T08:49:43.433Z,16.34
2017-07-05T08:50:52.444Z,16.42
2017-07-05T08:52:01.460Z,16.52
2017-07-05T08:53:10.563Z,16.73
2017-07-05T08:54:19.559Z,16.75
2017-07-05T08:55:28.584Z,16.82
2017-07-05T08:56:37.495Z,16.89
2017-07-05T08:57:46.413Z,16.96
2017-07-05T08:58:55.335Z,17.12
2017-07-05T09:00:04.255Z,17.18
2017-07-05T09:01:13.470Z,17.19
2017-07-05T09:02:22.568Z,17.34
2017-07-05T09:03:31.637Z,17.36
2017-07-05T09:04:40.678Z,17.33
2017-07-05T09:05:49.597Z,17.44
2017-07-05T09:06:58.808Z,17.56
2017-07-05T09:08:07.727Z,17.66
2017-07-05T09:09:17.020Z,17.66
2017-07-05T09:10:25.940Z,17.75
2017-07-05T09:11:35.117Z,17.78
2017-07-05T09:12:44.302Z,17.87
2017-07-05T09:13:53.669Z,17.86
2017-07-05T09:15:03.036Z,17.71
2017-07-05T09:16:12.208Z,17.79
2017-07-05T09:17:21.292Z,17.84
2017-07-05T09:18:30.602Z,17.72
2017-07-05T09:19:39.517Z,17.74
2017-07-05T09:20:48.635Z,17.74
2017-07-05T09:21:57.636Z,17.77
2017-07-05T09:23:06.645Z,17.71
2017-07-05T09:24:15.564Z,17.78
2017-07-05T09:25:25.067Z,17.82
2017-07-05T09:26:34.125Z,17.95
2017-07-05T09:27:43.085Z,17.95
2017-07-05T09:28:52.063Z,17.96
2017-07-05T09:30:01.116Z,18.02
2017-07-05T09:31:10.158Z,17.97
2017-07-05T09:32:19.097Z,17.97
2017-07-05T09:33:28.298Z,18.15
2017-07-05T09:34:37.211Z,18.29
2017-07-05T09:35:46.214Z,18.47
2017-07-05T09:36:55.292Z,18.44
2017-07-05T09:38:04.249Z,18.39
2017-07-05T09:39:13.345Z,18.42
2017-07-05T09:40:22.311Z,18.29
2017-07-05T09:41:31.295Z,18.29
2017-07-05T09:42:40.214Z,18.15
2017-07-05T09:43:49.174Z,18.1
2017-07-05T09:44:58.269Z,17.99
2017-07-05T09:46:07.190Z,17.96
2017-07-05T09:47:16.105Z,18
2017-07-05T09:48:25.026Z,17.96
2017-07-05T09:49:34.072Z,17.93
2017-07-05T09:50:42.995Z,17.9
2017-07-05T09:51:58.227Z,17.97
2017-07-05T09:53:12.918Z,17.95
2017-07-05T09:54:21.843Z,17.95
2017-07-05T09:55:30.757Z,17.97
2017-07-05T09:56:39.680Z,17.84
2017-07-05T09:57:48.599Z,17.77
2017-07-05T09:58:57.521Z,17.7
2017-07-05T10:00:06.469Z,17.75
2017-07-05T10:01:15.405Z,17.82
2017-07-05T10:02:24.324Z,17.92
2017-07-05T10:03:33.241Z,18.03
2017-07-05T10:04:42.250Z,18.12
2017-07-05T10:05:51.166Z,18.2
2017-07-05T10:07:00.093Z,18.29
2017-07-05T10:08:09.017Z,18.25
2017-07-05T10:09:17.944Z,18.36
2017-07-05T10:10:26.868Z,18.37
2017-07-05T10:11:35.794Z,18.37
2017-07-05T10:12:44.709Z,18.39
2017-07-05T10:13:53.632Z,18.45
2017-07-05T10:15:02.563Z,18.51
2017-07-05T10:16:11.482Z,18.35
2017-07-05T10:17:20.403Z,18.35
2017-07-05T10:18:29.314Z,18.25
2017-07-05T10:19:38.235Z,18.21
2017-07-05T10:20:47.154Z,18.37
2017-07-05T10:21:56.072Z,18.37
2017-07-05T10:23:04.995Z,18.36
2017-07-05T10:24:13.923Z,18.37
2017-07-05T10:25:22.838Z,18.26
2017-07-05T10:26:31.851Z,18.41
2017-07-05T10:27:41.110Z,18.36
2017-07-05T10:28:50.032Z,18.42
2017-07-05T10:29:58.954Z,18.35
2017-07-05T10:31:07.865Z,18.39
2017-07-05T10:32:16.806Z,18.37
2017-07-05T10:33:25.726Z,18.37
2017-07-05T10:34:34.647Z,18.5
2017-07-05T10:35:43.566Z,18.57
2017-07-05T10:36:52.490Z,18.66
2017-07-05T10:38:01.412Z,18.65
2017-07-05T10:39:10.332Z,18.63
2017-07-05T10:40:19.245Z,18.75
2017-07-05T10:41:28.212Z,18.76
2017-07-05T10:42:37.152Z,18.75
2017-07-05T10:43:46.410Z,18.8
2017-07-05T10:44:55.671Z,18.87
2017-07-05T10:46:04.603Z,18.84
2017-07-05T10:47:13.518Z,18.81
2017-07-05T10:48:22.446Z,18.88
2017-07-05T10:49:31.367Z,18.92
2017-07-05T10:50:40.284Z,19
2017-07-05T10:51:49.203Z,18.92
2017-07-05T10:52:58.129Z,18.87
2017-07-05T10:54:07.052Z,18.91
2017-07-05T10:55:15.973Z,19.06
2017-07-05T10:56:24.893Z,19.22
2017-07-05T10:57:33.811Z,19.36
2017-07-05T10:58:42.813Z,19.32
2017-07-05T10:59:51.738Z,19.21
2017-07-05T11:01:00.658Z,19
2017-07-05T11:02:09.589Z,19.04
2017-07-05T11:03:18.502Z,19.02
2017-07-05T11:04:27.433Z,19.06
2017-07-05T11:05:36.361Z,19.13
2017-07-05T11:06:45.283Z,19.23
2017-07-05T11:07:54.199Z,19.1
2017-07-05T11:09:03.126Z,19.21
2017-07-05T11:10:12.042Z,19.14
2017-07-05T11:11:20.964Z,19.39
2017-07-05T11:12:29.890Z,19.58
2017-07-05T11:13:38.813Z,19.5
2017-07-05T11:14:47.737Z,19.5
2017-07-05T11:15:56.655Z,19.66
2017-07-05T11:17:05.586Z,19.58
2017-07-05T11:18:14.509Z,19.65
2017-07-05T11:19:23.437Z,19.63
2017-07-05T11:20:32.358Z,19.59
2017-07-05T11:21:41.281Z,19.66
2017-07-05T11:22:50.200Z,19.68
2017-07-05T11:23:59.127Z,19.62
2017-07-05T11:25:08.054Z,19.65
2017-07-05T11:26:16.981Z,19.59
2017-07-05T11:27:25.902Z,19.63
2017-07-05T11:28:34.833Z,19.59
2017-07-05T11:29:43.754Z,19.48
2017-07-05T11:30:52.673Z,19.48
2017-07-05T11:32:01.600Z,19.4
2017-07-05T11:33:10.524Z,19.25
2017-07-05T11:34:19.447Z,19.33
2017-07-05T11:35:28.373Z,19.28
2017-07-05T11:36:37.295Z,19.28
2017-07-05T11:37:46.219Z,19.26
2017-07-05T11:38:55.140Z,19.26
2017-07-05T11:40:04.058Z,19.28
2017-07-05T11:41:12.979Z,19.25
2017-07-05T11:42:21.902Z,19.28
2017-07-05T11:43:30.823Z,19.26
2017-07-05T11:44:40.081Z,19.51
2017-07-05T11:45:49.002Z,19.48
2017-07-05T11:46:57.924Z,19.62
2017-07-05T11:48:06.848Z,19.8
2017-07-05T11:49:15.773Z,19.87
2017-07-05T11:50:24.694Z,20.03
2017-07-05T11:51:33.614Z,20.17
2017-07-05T11:52:42.538Z,20.33
2017-07-05T11:53:51.466Z,20.29
2017-07-05T11:55:00.389Z,20.35
2017-07-05T11:56:09.649Z,20.35
2017-07-05T11:57:18.668Z,20.42
2017-07-05T11:58:27.587Z,20.33
2017-07-05T11:59:36.507Z,20.36
2017-07-05T12:00:45.432Z,20.17
2017-07-05T12:01:54.361Z,20.2
2017-07-05T12:03:03.284Z,20.14
2017-07-05T12:04:12.209Z,20.24
2017-07-05T12:05:21.129Z,20.2
2017-07-05T12:06:30.054Z,20.31
2017-07-05T12:07:38.972Z,20.29
2017-07-05T12:08:47.892Z,20.23
2017-07-05T12:09:56.807Z,20.26
2017-07-05T12:11:05.733Z,20.36
2017-07-05T12:12:14.978Z,20.28
2017-07-05T12:13:23.909Z,20.29
2017-07-05T12:14:32.834Z,20.23
2017-07-05T12:15:41.760Z,20.13
2017-07-05T12:16:50.682Z,20.06
2017-07-05T12:17:59.613Z,19.98
2017-07-05T12:19:08.529Z,20.05
2017-07-05T12:20:17.445Z,20.05
2017-07-05T12:21:26.367Z,20.2
2017-07-05T12:22:35.295Z,20.16
2017-07-05T12:23:44.305Z,20.1
2017-07-05T12:24:53.226Z,20.14
2017-07-05T12:26:02.151Z,20.16
2017-07-05T12:27:11.084Z,20.17
2017-07-05T12:28:20.006Z,20.29
2017-07-05T12:29:28.930Z,20.21
2017-07-05T12:30:37.850Z,20.28
2017-07-05T12:31:46.775Z,20.36
2017-07-05T12:32:56.036Z,20.43
2017-07-05T12:34:05.036Z,20.54
2017-07-05T12:35:13.957Z,20.57
2017-07-05T12:36:22.877Z,20.58
2017-07-05T12:37:31.801Z,20.55
2017-07-05T12:38:40.725Z,20.66
2017-07-05T12:39:49.694Z,20.47
2017-07-05T12:40:58.566Z,20.48
2017-07-05T12:42:07.490Z,20.5
2017-07-05T12:43:16.405Z,20.35
2017-07-05T12:44:25.329Z,20.42
2017-07-05T12:45:34.251Z,20.41
2017-07-05T12:46:43.176Z,20.33
2017-07-05T12:47:52.103Z,20.33
2017-07-05T12:49:01.024Z,20.23
2017-07-05T12:50:10.029Z,20.18
2017-07-05T12:51:18.952Z,20.18
2017-07-05T12:52:27.871Z,20.24
2017-07-05T12:53:36.791Z,20.38
2017-07-05T12:54:45.708Z,20.38
2017-07-05T12:55:54.627Z,20.47
2017-07-05T12:57:03.551Z,20.52
2017-07-05T12:58:12.474Z,20.5
2017-07-05T12:59:21.390Z,20.47
2017-07-05T13:00:30.317Z,20.48
2017-07-05T13:01:39.246Z,20.62
2017-07-05T13:02:48.259Z,20.73
2017-07-05T13:03:57.178Z,20.77
2017-07-05T13:05:06.099Z,20.77
2017-07-05T13:06:15.020Z,20.88
2017-07-05T13:07:23.940Z,20.84
2017-07-05T13:08:32.858Z,20.87
2017-07-05T13:09:41.784Z,20.84
2017-07-05T13:10:50.720Z,20.77
2017-07-05T13:11:59.665Z,20.82
2017-07-05T13:13:08.614Z,20.57
2017-07-05T13:14:17.559Z,20.59
2017-07-05T13:15:26.511Z,20.47
2017-07-05T13:16:35.457Z,20.51
2017-07-05T13:17:44.401Z,20.62
2017-07-05T13:18:53.354Z,20.66
2017-07-05T13:20:02.291Z,20.66
2017-07-05T13:21:11.233Z,20.76
2017-07-05T13:22:20.184Z,20.73
2017-07-05T13:23:29.131Z,20.73
2017-07-05T13:24:38.086Z,20.77
2017-07-05T13:25:47.037Z,20.73
2017-07-05T13:26:56.068Z,20.59
2017-07-05T13:28:05.022Z,20.64
2017-07-05T13:29:13.966Z,20.61
2017-07-05T13:30:22.989Z,20.69
2017-07-05T13:31:31.933Z,20.72
2017-07-05T13:32:40.880Z,20.55
2017-07-05T13:33:49.827Z,20.59
2017-07-05T13:34:58.784Z,20.58
2017-07-05T13:36:07.730Z,20.51
2017-07-05T13:37:16.684Z,20.51
2017-07-05T13:38:25.634Z,20.42
2017-07-05T13:39:34.577Z,20.51
2017-07-05T13:40:43.530Z,20.51
2017-07-05T13:41:52.485Z,20.51
2017-07-05T13:43:01.429Z,20.51
2017-07-05T13:44:10.373Z,20.48
2017-07-05T13:45:19.319Z,20.51
2017-07-05T13:46:28.271Z,20.43
2017-07-05T13:47:37.223Z,20.51
2017-07-05T13:48:46.179Z,20.52
2017-07-05T13:49:55.131Z,20.59
2017-07-05T13:51:04.076Z,20.61
2017-07-05T13:52:13.153Z,20.66
2017-07-05T13:53:22.095Z,20.73
2017-07-05T13:54:31.043Z,20.84
2017-07-05T13:55:39.990Z,20.89
2017-07-05T13:56:49.040Z,20.92
2017-07-05T13:57:57.990Z,20.92
2017-07-05T13:59:06.938Z,20.85
2017-07-05T14:00:15.886Z,20.97
2017-07-05T14:01:24.832Z,20.84
2017-07-05T14:02:33.783Z,20.94
2017-07-05T14:03:42.730Z,20.94
2017-07-05T14:04:51.676Z,20.87
2017-07-05T14:06:00.623Z,20.87
2017-07-05T14:07:09.656Z,20.89
2017-07-05T14:08:18.599Z,20.88
2017-07-05T14:09:27.551Z,20.92
2017-07-05T14:10:36.513Z,20.99
2017-07-05T14:11:45.600Z,20.88
2017-07-05T14:12:54.956Z,20.97
2017-07-05T14:14:03.910Z,21.16
2017-07-05T14:15:12.863Z,21.19
2017-07-05T14:16:21.811Z,21.22
2017-07-05T14:17:30.811Z,21.16
2017-07-05T14:18:39.763Z,21.1
2017-07-05T14:19:48.703Z,21.14
2017-07-05T14:20:57.657Z,21.04
2017-07-05T14:22:06.599Z,21.04
2017-07-05T14:23:15.548Z,21.01
2017-07-05T14:24:24.584Z,21.14
2017-07-05T14:25:33.624Z,21.1
2017-07-05T14:26:42.574Z,21.16
2017-07-05T14:27:51.524Z,21.28
2017-07-05T14:29:00.469Z,21.4
2017-07-05T14:30:09.413Z,21.38
2017-07-05T14:31:18.356Z,21.34
2017-07-05T14:32:27.308Z,21.35
2017-07-05T14:33:36.259Z,21.43
2017-07-05T14:34:45.205Z,21.28
2017-07-05T14:35:54.155Z,21.38
2017-07-05T14:37:03.098Z,21.34
2017-07-05T14:38:12.047Z,21.38
2017-07-05T14:39:21.001Z,21.34
2017-07-05T14:40:30.279Z,21.35
2017-07-05T14:41:39.227Z,21.43
2017-07-05T14:42:48.264Z,21.32
2017-07-05T14:43:57.209Z,21.19
2017-07-05T14:45:06.157Z,21.32
2017-07-05T14:46:15.108Z,21.28
2017-07-05T14:47:24.056Z,21.22
2017-07-05T14:48:33.089Z,21.17
2017-07-05T14:49:42.043Z,21.22
2017-07-05T14:50:51.079Z,21.21
2017-07-05T14:52:00.017Z,21.16